Time;durP1;ratioP1;P1;durP2;ratioP2;P2;SDS_P1;SDS_P2;PMS_P1;PMS_P2;Temp;Humidity;BMP_temperature;BMP_pressure;BME280_temperature;BME280_humidity;BME280_pressure;Samples;Min_cycle;Max_cycle;Signal;HPM_P1;HPM_P2
2023/04/20 00:02:20;;;;;;;7.85;5.68;;;;;;;;;;5055099;28;20029;-82
2023/04/20 00:04:46;;;;;;;7.55;5.57;;;;;;;;;;5053355;28;20040;-82
2023/04/20 00:07:11;;;;;;;8.13;5.78;;;;;;;;;;5055171;28;20049;-82
2023/04/20 00:09:37;;;;;;;7.45;5.35;;;;;;;;;;5054761;28;20124;-83
2023/04/20 00:12:03;;;;;;;8.25;4.70;;;;;;;;;;5053806;28;20033;-82
2023/04/20 00:14:29;;;;;;;5.90;4.38;;;;;;;;;;5054776;28;20041;-83
2023/04/20 00:16:54;;;;;;;5.40;4.20;;;;;;;;;;5054476;28;20111;-82
2023/04/20 00:19:20;;;;;;;8.77;4.60;;;;;;;;;;5045226;28;20067;-83
2023/04/20 00:21:47;;;;;;;13.63;8.23;;;;;;;;;;5045539;28;20139;-82
2023/04/20 00:24:12;;;;;;;12.18;7.70;;;;;;;;;;5054911;28;20514;-82
2023/04/20 00:26:37;;;;;;;9.80;5.85;;;;;;;;;;5056132;28;20039;-84
2023/04/20 00:29:03;;;;;;;12.25;5.63;;;;;;;;;;5057613;28;20024;-84
2023/04/20 00:31:30;;;;;;;9.02;5.72;;;;;;;;;;5057080;28;20499;-83
2023/04/20 00:33:56;;;;;;;6.50;4.40;;;;;;;;;;5042872;28;20033;-82
2023/04/20 00:36:21;;;;;;;6.60;4.53;;;;;;;;;;5058528;28;20132;-84
2023/04/20 00:38:47;;;;;;;7.28;5.20;;;;;;;;;;5057739;28;20094;-83
2023/04/20 00:41:12;;;;;;;6.60;4.70;;;;;;;;;;5037022;28;20068;-83
2023/04/20 00:43:48;;;;;;;6.70;5.05;;;;;;;;;;5054979;28;20098;-84
2023/04/20 00:46:15;;;;;;;7.13;5.47;;;;;;;;;;5053894;28;20059;-84
2023/04/20 00:48:41;;;;;;;8.05;4.75;;;;;;;;;;5057358;28;20025;-84
2023/04/20 00:51:07;;;;;;;5.53;3.65;;;;;;;;;;5048741;28;20128;-84
2023/04/20 00:53:35;;;;;;;5.15;3.40;;;;;;;;;;5039924;28;20033;-83
2023/04/20 00:56:01;;;;;;;4.40;2.80;;;;;;;;;;5055566;28;20120;-82
2023/04/20 00:58:27;;;;;;;5.07;3.08;;;;;;;;;;5055834;28;20029;-83
2023/04/20 01:00:52;;;;;;;4.18;2.88;;;;;;;;;;5057297;28;20040;-83
2023/04/20 01:03:18;;;;;;;3.50;2.75;;;;;;;;;;5055757;28;20033;-83
2023/04/20 01:05:47;;;;;;;3.50;2.50;;;;;;;;;;5055712;28;20032;-84
2023/04/20 01:08:12;;;;;;;3.15;2.30;;;;;;;;;;5044613;28;20430;-84
2023/04/20 01:10:38;;;;;;;3.97;2.67;;;;;;;;;;5057353;28;20064;-84
2023/04/20 01:13:05;;;;;;;3.65;2.80;;;;;;;;;;5056647;28;20037;-82
2023/04/20 01:15:34;;;;;;;3.45;2.30;;;;;;;;;;5053695;28;20128;-83
2023/04/20 01:17:59;;;;;;;3.67;2.70;;;;;;;;;;5055282;28;20033;-83
2023/04/20 01:20:25;;;;;;;3.35;2.50;;;;;;;;;;5056507;28;20033;-83
2023/04/20 01:22:53;;;;;;;3.80;2.38;;;;;;;;;;5055471;28;20044;-84
2023/04/20 01:25:19;;;;;;;3.15;2.38;;;;;;;;;;5055507;28;20122;-84
2023/04/20 01:27:45;;;;;;;3.30;2.10;;;;;;;;;;5066679;28;20510;-84
2023/04/20 01:30:11;;;;;;;5.00;1.90;;;;;;;;;;5069763;28;20040;-83
2023/04/20 01:32:37;;;;;;;2.83;2.08;;;;;;;;;;5062394;28;20048;-84
2023/04/20 01:35:04;;;;;;;3.00;2.00;;;;;;;;;;5058648;28;20445;-84
2023/04/20 01:37:29;;;;;;;3.10;2.10;;;;;;;;;;5058180;28;20095;-84
2023/04/20 01:39:55;;;;;;;2.88;2.03;;;;;;;;;;5057678;28;20037;-84
2023/04/20 01:42:21;;;;;;;3.03;2.00;;;;;;;;;;5049681;28;20058;-84
2023/04/20 01:44:48;;;;;;;2.90;1.88;;;;;;;;;;5058154;28;20076;-84
2023/04/20 01:47:14;;;;;;;4.13;1.90;;;;;;;;;;5058571;28;20025;-83
2023/04/20 01:49:39;;;;;;;3.80;1.80;;;;;;;;;;5039151;28;20039;-84
2023/04/20 01:52:05;;;;;;;2.30;1.70;;;;;;;;;;5057165;28;20037;-84
2023/04/20 01:54:31;;;;;;;3.20;1.80;;;;;;;;;;5056384;28;20689;-83
2023/04/20 01:56:57;;;;;;;2.90;2.10;;;;;;;;;;5037921;28;20033;-83
2023/04/20 01:59:22;;;;;;;3.75;2.45;;;;;;;;;;5055530;28;20047;-84
2023/04/20 02:01:48;;;;;;;4.35;2.60;;;;;;;;;;5057084;28;20453;-83
2023/04/20 02:04:13;;;;;;;3.67;2.83;;;;;;;;;;5056593;28;20029;-84
2023/04/20 02:06:39;;;;;;;4.03;2.60;;;;;;;;;;5056483;28;20506;-82
2023/04/20 02:09:08;;;;;;;2.97;2.30;;;;;;;;;;5055311;28;20021;-84
2023/04/20 02:11:34;;;;;;;4.68;2.70;;;;;;;;;;5043215;28;20057;-84
2023/04/20 02:14:00;;;;;;;3.75;2.60;;;;;;;;;;5055256;28;20102;-83
2023/04/20 02:16:28;;;;;;;3.85;2.65;;;;;;;;;;5051404;28;20487;-82
2023/04/20 02:18:54;;;;;;;5.32;3.25;;;;;;;;;;5054336;28;20025;-83
2023/04/20 02:21:20;;;;;;;5.70;3.30;;;;;;;;;;5053208;28;20041;-84
2023/04/20 02:23:45;;;;;;;5.00;3.53;;;;;;;;;;5036749;28;20036;-84
2023/04/20 02:26:11;;;;;;;6.35;3.75;;;;;;;;;;5043670;28;20061;-83
2023/04/20 02:28:39;;;;;;;5.22;3.90;;;;;;;;;;5053235;28;20025;-83
2023/04/20 02:31:04;;;;;;;5.55;3.90;;;;;;;;;;5054592;28;20029;-82
2023/04/20 02:33:30;;;;;;;5.32;3.55;;;;;;;;;;5052688;28;20083;-82
2023/04/20 02:35:56;;;;;;;6.55;3.80;;;;;;;;;;5048903;28;20036;-82
2023/04/20 02:38:21;;;;;;;4.95;3.97;;;;;;;;;;5052696;28;20032;-84
2023/04/20 02:40:47;;;;;;;5.82;4.28;;;;;;;;;;5052774;28;20032;-84
2023/04/20 02:43:12;;;;;;;4.20;3.17;;;;;;;;;;5052262;28;20407;-81
2023/04/20 02:45:39;;;;;;;4.15;3.08;;;;;;;;;;5052798;28;20035;-82
2023/04/20 02:48:06;;;;;;;6.68;4.60;;;;;;;;;;5052252;28;20025;-81
2023/04/20 02:50:33;;;;;;;6.90;4.93;;;;;;;;;;5053952;28;20032;-81
2023/04/20 02:53:31;;;;;;;6.72;4.85;;;;;;;;;;5046084;28;20072;-82
2023/04/20 02:56:15;;;;;;;6.50;4.93;;;;;;;;;;5053427;28;20055;-82
2023/04/20 02:58:43;;;;;;;7.07;4.97;;;;;;;;;;5052045;28;20617;-82
2023/04/20 03:01:32;;;;;;;6.20;4.68;;;;;;;;;;5053830;28;20446;-83
2023/04/20 03:04:04;;;;;;;9.87;5.47;;;;;;;;;;5051370;28;20087;-84
2023/04/20 03:06:32;;;;;;;8.02;5.28;;;;;;;;;;5022837;28;20124;-82
2023/04/20 03:08:58;;;;;;;8.00;4.90;;;;;;;;;;5051978;28;20438;-82
2023/04/20 03:11:41;;;;;;;7.55;4.97;;;;;;;;;;5048791;28;20033;-82
2023/04/20 03:14:09;;;;;;;7.72;5.40;;;;;;;;;;5052360;28;20045;-82
2023/04/20 03:16:35;;;;;;;6.80;4.93;;;;;;;;;;5052006;28;20032;-82
2023/04/20 03:19:01;;;;;;;7.97;5.60;;;;;;;;;;5051927;28;20021;-83
2023/04/20 03:21:26;;;;;;;8.00;5.57;;;;;;;;;;5033055;28;20032;-84
2023/04/20 03:23:52;;;;;;;8.30;6.00;;;;;;;;;;5052129;28;20094;-84
2023/04/20 03:26:18;;;;;;;9.93;5.80;;;;;;;;;;5053330;28;20044;-81
2023/04/20 03:29:02;;;;;;;9.73;6.00;;;;;;;;;;5050842;28;20075;-84
2023/04/20 03:31:28;;;;;;;6.40;4.43;;;;;;;;;;5051317;28;20083;-82
2023/04/20 03:33:55;;;;;;;3.78;2.78;;;;;;;;;;5051400;28;20103;-82
2023/04/20 03:36:21;;;;;;;2.70;1.90;;;;;;;;;;5054460;28;20071;-82
2023/04/20 03:38:47;;;;;;;4.72;3.10;;;;;;;;;;5051642;28;20029;-83
2023/04/20 03:41:13;;;;;;;4.03;3.00;;;;;;;;;;5052256;28;20072;-82
2023/04/20 03:43:40;;;;;;;1.98;1.70;;;;;;;;;;5029171;28;20231;-84
2023/04/20 03:46:06;;;;;;;3.42;1.67;;;;;;;;;;5052881;28;20036;-84
2023/04/20 03:48:33;;;;;;;4.05;2.47;;;;;;;;;;5052514;28;20480;-84
2023/04/20 03:50:58;;;;;;;3.58;2.10;;;;;;;;;;5048455;28;20029;-82
2023/04/20 03:53:25;;;;;;;2.92;2.10;;;;;;;;;;5045853;28;20029;-82
2023/04/20 03:55:51;;;;;;;3.38;2.30;;;;;;;;;;5035268;28;20717;-82
2023/04/20 03:58:20;;;;;;;2.10;1.70;;;;;;;;;;5053315;28;20490;-82
2023/04/20 04:01:12;;;;;;;3.10;1.80;;;;;;;;;;5051636;28;20056;-82
2023/04/20 04:03:41;;;;;;;2.40;1.80;;;;;;;;;;5056618;28;20029;-82
2023/04/20 04:06:09;;;;;;;3.90;2.10;;;;;;;;;;5055850;28;20052;-82
2023/04/20 04:08:34;;;;;;;3.10;2.20;;;;;;;;;;5057078;28;20096;-83
2023/04/20 04:11:00;;;;;;;3.63;2.33;;;;;;;;;;5055570;28;20569;-83
2023/04/20 04:13:25;;;;;;;3.20;2.20;;;;;;;;;;5057267;28;20036;-84
2023/04/20 04:15:51;;;;;;;4.00;2.60;;;;;;;;;;5055426;28;20490;-82
2023/04/20 04:18:17;;;;;;;3.10;2.40;;;;;;;;;;5043031;28;20025;-82
2023/04/20 04:20:42;;;;;;;3.33;2.45;;;;;;;;;;5046646;28;20041;-82
2023/04/20 04:23:10;;;;;;;3.60;2.58;;;;;;;;;;5055378;28;20086;-82
2023/04/20 04:25:44;;;;;;;2.83;2.13;;;;;;;;;;5054272;28;20355;-82
2023/04/20 04:28:11;;;;;;;3.63;2.60;;;;;;;;;;5040221;28;20051;-83
2023/04/20 04:30:46;;;;;;;3.60;2.63;;;;;;;;;;5040508;28;20067;-84
2023/04/20 04:33:13;;;;;;;3.90;3.00;;;;;;;;;;5046983;28;20029;-83
2023/04/20 04:35:40;;;;;;;4.93;3.33;;;;;;;;;;5050928;28;20032;-84
2023/04/20 04:38:07;;;;;;;7.28;3.90;;;;;;;;;;5053652;28;20103;-84
2023/04/20 04:40:34;;;;;;;8.43;4.82;;;;;;;;;;5054745;28;20036;-82
2023/04/20 04:43:02;;;;;;;9.75;5.30;;;;;;;;;;5054960;28;20024;-82
2023/04/20 04:45:29;;;;;;;7.28;4.35;;;;;;;;;;5055026;28;20036;-81
2023/04/20 04:47:55;;;;;;;9.07;5.32;;;;;;;;;;5054474;28;20479;-82
2023/04/20 04:50:22;;;;;;;6.05;4.13;;;;;;;;;;5054727;28;20040;-83
2023/04/20 04:52:47;;;;;;;5.32;3.70;;;;;;;;;;5053521;28;20116;-83
2023/04/20 04:55:13;;;;;;;13.35;7.28;;;;;;;;;;5040384;28;20029;-84
2023/04/20 04:57:38;;;;;;;6.68;4.90;;;;;;;;;;5052347;28;20559;-81
2023/04/20 05:00:08;;;;;;;4.57;3.67;;;;;;;;;;5053611;28;20033;-83
2023/04/20 05:02:34;;;;;;;5.18;3.60;;;;;;;;;;5053870;28;20075;-82
2023/04/20 05:05:00;;;;;;;4.55;3.10;;;;;;;;;;5053832;28;20596;-83
2023/04/20 05:07:25;;;;;;;4.68;3.30;;;;;;;;;;5054906;28;20079;-82
2023/04/20 05:09:51;;;;;;;4.53;3.22;;;;;;;;;;5055079;28;20100;-83
2023/04/20 05:12:17;;;;;;;4.88;3.28;;;;;;;;;;5055593;28;20025;-85
2023/04/20 05:14:42;;;;;;;7.32;4.38;;;;;;;;;;5056476;28;20028;-84
2023/04/20 05:17:08;;;;;;;5.30;3.67;;;;;;;;;;5056723;28;20093;-83
2023/04/20 05:19:33;;;;;;;3.95;3.10;;;;;;;;;;5055264;28;20040;-82
2023/04/20 05:21:59;;;;;;;5.78;3.80;;;;;;;;;;5055346;28;20043;-83
2023/04/20 05:24:24;;;;;;;7.10;4.13;;;;;;;;;;5054720;28;20040;-84
2023/04/20 05:26:50;;;;;;;7.97;4.40;;;;;;;;;;5056620;28;20043;-84
2023/04/20 05:29:15;;;;;;;6.25;2.90;;;;;;;;;;5056593;28;20120;-84
2023/04/20 05:31:41;;;;;;;6.05;3.17;;;;;;;;;;5056385;28;20033;-83
2023/04/20 05:34:06;;;;;;;13.60;5.78;;;;;;;;;;5055030;28;20478;-84
2023/04/20 05:36:35;;;;;;;21.17;8.20;;;;;;;;;;5056049;28;20120;-82
2023/04/20 05:39:00;;;;;;;8.73;4.93;;;;;;;;;;5054896;28;20563;-83
2023/04/20 05:41:26;;;;;;;6.57;4.05;;;;;;;;;;5054106;28;20029;-83
2023/04/20 05:43:55;;;;;;;5.78;3.63;;;;;;;;;;5044596;28;20072;-83
2023/04/20 05:46:22;;;;;;;4.32;3.10;;;;;;;;;;5040297;28;20037;-83
2023/04/20 05:48:47;;;;;;;5.07;3.30;;;;;;;;;;5056840;28;20055;-81
2023/04/20 05:51:13;;;;;;;4.38;3.30;;;;;;;;;;5060000;28;20502;-82
2023/04/20 05:53:39;;;;;;;5.93;3.97;;;;;;;;;;5057841;28;20132;-82
2023/04/20 05:56:05;;;;;;;5.53;2.90;;;;;;;;;;5050540;28;20036;-81
2023/04/20 05:58:32;;;;;;;4.72;3.60;;;;;;;;;;5057233;28;20091;-82
2023/04/20 06:00:57;;;;;;;6.10;3.38;;;;;;;;;;5057094;28;20041;-81
2023/04/20 06:03:23;;;;;;;4.07;3.00;;;;;;;;;;5049027;28;20512;-80
2023/04/20 06:05:48;;;;;;;3.53;2.85;;;;;;;;;;5045239;28;20098;-81
2023/04/20 06:08:14;;;;;;;4.97;3.35;;;;;;;;;;5053194;28;20039;-81
2023/04/20 06:10:39;;;;;;;4.28;2.83;;;;;;;;;;5051107;28;20036;-80
2023/04/20 06:13:05;;;;;;;4.35;3.03;;;;;;;;;;5051805;28;20045;-80
2023/04/20 06:15:30;;;;;;;4.55;3.25;;;;;;;;;;5052258;28;20033;-81
2023/04/20 06:17:57;;;;;;;4.95;3.42;;;;;;;;;;5052004;28;20461;-81
2023/04/20 06:20:22;;;;;;;5.40;4.18;;;;;;;;;;5053258;28;20036;-81
2023/04/20 06:22:48;;;;;;;3.63;3.03;;;;;;;;;;5050400;28;20438;-81
2023/04/20 06:25:14;;;;;;;5.70;3.70;;;;;;;;;;5034787;28;20068;-82
2023/04/20 06:27:40;;;;;;;4.55;3.40;;;;;;;;;;5051454;28;20463;-80
2023/04/20 06:30:06;;;;;;;4.13;3.00;;;;;;;;;;5051794;28;20491;-81
2023/04/20 06:32:32;;;;;;;5.38;3.20;;;;;;;;;;5051925;28;20041;-81
2023/04/20 06:34:57;;;;;;;3.97;2.90;;;;;;;;;;5051796;28;20028;-81
2023/04/20 06:37:23;;;;;;;3.67;2.78;;;;;;;;;;5021330;28;20030;-81
2023/04/20 06:39:53;;;;;;;5.05;2.83;;;;;;;;;;5052815;28;20092;-81
2023/04/20 06:42:18;;;;;;;4.07;2.95;;;;;;;;;;5052974;28;20053;-82
2023/04/20 06:44:44;;;;;;;3.80;2.55;;;;;;;;;;5047048;28;20091;-83
2023/04/20 06:47:10;;;;;;;5.22;2.90;;;;;;;;;;5049500;28;20500;-82
2023/04/20 06:49:36;;;;;;;3.70;2.60;;;;;;;;;;5053429;28;20109;-78
2023/04/20 06:52:02;;;;;;;3.17;2.47;;;;;;;;;;5051812;28;20036;-81
2023/04/20 06:54:27;;;;;;;4.07;2.65;;;;;;;;;;5052244;28;20444;-81
2023/04/20 06:56:52;;;;;;;4.00;2.40;;;;;;;;;;5052155;28;20044;-82
2023/04/20 06:59:18;;;;;;;3.35;2.65;;;;;;;;;;5051488;28;20036;-82
2023/04/20 07:01:43;;;;;;;3.50;2.50;;;;;;;;;;5052187;28;20440;-82
2023/04/20 07:04:09;;;;;;;2.80;2.10;;;;;;;;;;5052060;28;20119;-81
2023/04/20 07:06:35;;;;;;;2.45;1.90;;;;;;;;;;5052480;28;20036;-81
2023/04/20 07:09:00;;;;;;;3.03;2.25;;;;;;;;;;5051567;28;20038;-80
2023/04/20 07:11:26;;;;;;;2.72;2.13;;;;;;;;;;5052156;28;20021;-80
2023/04/20 07:13:51;;;;;;;4.20;2.50;;;;;;;;;;5052584;28;20037;-80
2023/04/20 07:16:17;;;;;;;3.08;2.58;;;;;;;;;;5052280;28;20102;-81
2023/04/20 07:18:42;;;;;;;3.20;2.70;;;;;;;;;;5051828;28;20040;-81
2023/04/20 07:21:08;;;;;;;3.35;2.70;;;;;;;;;;5051959;28;20037;-79
2023/04/20 07:23:33;;;;;;;2.55;2.00;;;;;;;;;;5049944;28;20040;-80
2023/04/20 07:25:59;;;;;;;4.90;2.80;;;;;;;;;;5053547;28;20029;-81
2023/04/20 07:28:25;;;;;;;3.25;2.25;;;;;;;;;;5048634;28;20036;-81
2023/04/20 07:30:50;;;;;;;4.72;2.65;;;;;;;;;;5052529;28;20032;-81
2023/04/20 07:33:16;;;;;;;3.65;2.80;;;;;;;;;;5050864;28;20101;-81
2023/04/20 07:35:41;;;;;;;3.10;2.40;;;;;;;;;;5050431;28;20443;-81
2023/04/20 07:38:07;;;;;;;2.75;2.10;;;;;;;;;;5049775;28;20044;-80
2023/04/20 07:40:32;;;;;;;2.42;1.90;;;;;;;;;;5052927;28;20033;-81
2023/04/20 07:42:57;;;;;;;2.78;2.00;;;;;;;;;;5034117;28;20573;-82
2023/04/20 07:45:23;;;;;;;2.00;1.70;;;;;;;;;;5052589;28;20064;-81
2023/04/20 07:47:51;;;;;;;2.58;1.90;;;;;;;;;;5051829;28;20051;-82
2023/04/20 07:50:16;;;;;;;2.85;1.90;;;;;;;;;;5051032;28;20064;-82
2023/04/20 07:52:45;;;;;;;1.88;1.42;;;;;;;;;;5051906;28;20075;-82
2023/04/20 07:55:12;;;;;;;3.20;2.13;;;;;;;;;;5050734;28;20679;-81
2023/04/20 07:57:38;;;;;;;5.20;2.20;;;;;;;;;;5058018;28;20498;-80
2023/04/20 08:00:08;;;;;;;3.63;1.85;;;;;;;;;;5051259;28;20045;-79
2023/04/20 08:02:43;;;;;;;2.22;1.70;;;;;;;;;;5048167;28;20049;-83
2023/04/20 08:05:09;;;;;;;2.50;1.80;;;;;;;;;;5049812;28;20105;-81
2023/04/20 08:07:35;;;;;;;3.05;2.40;;;;;;;;;;5050501;28;20036;-82
2023/04/20 08:10:01;;;;;;;4.13;3.13;;;;;;;;;;5052042;28;20044;-81
2023/04/20 08:12:27;;;;;;;3.55;2.20;;;;;;;;;;5049833;28;20041;-81
2023/04/20 08:14:53;;;;;;;2.72;1.98;;;;;;;;;;5049927;28;20037;-79
2023/04/20 08:17:18;;;;;;;5.40;3.95;;;;;;;;;;5051190;28;20491;-81
2023/04/20 08:19:43;;;;;;;3.30;2.35;;;;;;;;;;5051651;28;20036;-80
2023/04/20 08:22:11;;;;;;;3.60;1.92;;;;;;;;;;5033726;28;20144;-80
2023/04/20 08:24:37;;;;;;;2.30;1.70;;;;;;;;;;5051578;28;20033;-81
2023/04/20 08:27:02;;;;;;;3.40;1.60;;;;;;;;;;5049826;28;20037;-81
2023/04/20 08:29:28;;;;;;;2.13;1.52;;;;;;;;;;5051749;28;20514;-82
2023/04/20 08:31:53;;;;;;;2.10;1.48;;;;;;;;;;5043948;28;20032;-82
2023/04/20 08:34:19;;;;;;;3.15;1.60;;;;;;;;;;5045371;28;20391;-81
2023/04/20 08:36:45;;;;;;;1.95;1.45;;;;;;;;;;5051988;28;20029;-82
2023/04/20 08:39:13;;;;;;;2.25;1.77;;;;;;;;;;5051602;28;20040;-82
2023/04/20 08:41:39;;;;;;;2.17;1.60;;;;;;;;;;5048788;28;20051;-81
2023/04/20 08:44:06;;;;;;;2.20;1.60;;;;;;;;;;5061071;28;20033;-81
2023/04/20 08:46:33;;;;;;;2.15;1.45;;;;;;;;;;5049718;28;20033;-82
2023/04/20 08:49:01;;;;;;;11.75;9.65;;;;;;;;;;5053934;28;20028;-82
2023/04/20 08:51:27;;;;;;;3.75;3.05;;;;;;;;;;5053706;28;20040;-82
2023/04/20 08:53:54;;;;;;;2.25;1.85;;;;;;;;;;5055602;28;20029;-82
2023/04/20 08:56:34;;;;;;;3.47;1.85;;;;;;;;;;5036979;28;20175;-82
2023/04/20 08:59:02;;;;;;;2.47;1.90;;;;;;;;;;5053213;28;20029;-82
2023/04/20 09:01:28;;;;;;;2.17;1.95;;;;;;;;;;5054913;28;20033;-82
2023/04/20 09:03:54;;;;;;;2.50;2.20;;;;;;;;;;5055627;28;20045;-82
2023/04/20 09:06:19;;;;;;;2.65;2.10;;;;;;;;;;5056113;28;20558;-82
2023/04/20 09:08:45;;;;;;;2.70;2.20;;;;;;;;;;5051232;28;20029;-82
2023/04/20 09:11:23;;;;;;;2.85;2.22;;;;;;;;;;5054000;28;20029;-82
2023/04/20 09:14:05;;;;;;;3.92;2.60;;;;;;;;;;5052008;28;20111;-82
2023/04/20 09:16:31;;;;;;;3.38;2.53;;;;;;;;;;5053844;28;20086;-82
2023/04/20 09:18:57;;;;;;;2.70;2.03;;;;;;;;;;5053652;28;20044;-82
2023/04/20 09:21:25;;;;;;;3.13;2.22;;;;;;;;;;5055121;28;20045;-82
2023/04/20 09:24:05;;;;;;;2.88;2.33;;;;;;;;;;5054459;28;20033;-84
2023/04/20 09:26:35;;;;;;;7.50;4.20;;;;;;;;;;5052709;28;20037;-82
2023/04/20 09:29:03;;;;;;;4.78;3.58;;;;;;;;;;5055637;28;20033;-88
2023/04/20 09:31:29;;;;;;;3.92;2.78;;;;;;;;;;5056617;28;20068;-84
2023/04/20 09:33:56;;;;;;;2.40;2.10;;;;;;;;;;5062182;28;20406;-86
2023/04/20 09:36:21;;;;;;;3.47;2.42;;;;;;;;;;5065016;28;20040;-83
2023/04/20 09:38:47;;;;;;;2.63;1.90;;;;;;;;;;5063790;28;20040;-86
2023/04/20 09:41:16;;;;;;;3.17;2.40;;;;;;;;;;5067297;28;20040;-86
2023/04/20 09:43:43;;;;;;;5.68;3.28;;;;;;;;;;5067238;28;20093;-85
2023/04/20 09:46:08;;;;;;;3.33;2.30;;;;;;;;;;5055478;28;20036;-84
2023/04/20 09:48:34;;;;;;;3.08;2.25;;;;;;;;;;5058767;28;20037;-85
2023/04/20 09:51:02;;;;;;;11.50;5.38;;;;;;;;;;5057299;28;20030;-84
2023/04/20 09:53:29;;;;;;;13.23;6.43;;;;;;;;;;5058732;28;20037;-84
2023/04/20 09:55:57;;;;;;;12.52;6.43;;;;;;;;;;5059378;28;20064;-84
2023/04/20 09:58:22;;;;;;;7.97;4.00;;;;;;;;;;5058078;28;20075;-84
2023/04/20 10:00:48;;;;;;;6.68;3.97;;;;;;;;;;5056288;28;20037;-85
2023/04/20 10:03:18;;;;;;;3.30;2.70;;;;;;;;;;5057216;28;20475;-85
2023/04/20 10:05:44;;;;;;;8.52;4.40;;;;;;;;;;5040852;28;20127;-84
2023/04/20 10:08:10;;;;;;;4.25;2.92;;;;;;;;;;5046432;28;20544;-83
2023/04/20 10:10:49;;;;;;;3.75;2.60;;;;;;;;;;5055900;28;20103;-85
2023/04/20 10:13:18;;;;;;;2.63;2.25;;;;;;;;;;5057458;28;20033;-85
2023/04/20 10:15:43;;;;;;;3.88;2.13;;;;;;;;;;5056001;28;20083;-84
2023/04/20 10:18:19;;;;;;;3.13;2.35;;;;;;;;;;5058451;28;20037;-83
2023/04/20 10:20:45;;;;;;;2.70;2.08;;;;;;;;;;5059276;28;20104;-85
2023/04/20 10:23:10;;;;;;;2.67;2.10;;;;;;;;;;5059371;28;20063;-85
2023/04/20 10:25:36;;;;;;;2.88;2.00;;;;;;;;;;5059468;28;20036;-85
2023/04/20 10:28:05;;;;;;;3.10;2.22;;;;;;;;;;5057333;28;20029;-85
2023/04/20 10:30:32;;;;;;;3.65;2.10;;;;;;;;;;5040692;28;20119;-84
2023/04/20 10:33:11;;;;;;;2.88;2.10;;;;;;;;;;5040762;28;20122;-85
2023/04/20 10:35:49;;;;;;;2.67;2.00;;;;;;;;;;5056970;28;20075;-85
2023/04/20 10:38:15;;;;;;;2.97;2.30;;;;;;;;;;5057087;28;20044;-85
2023/04/20 10:40:41;;;;;;;2.60;2.10;;;;;;;;;;5055603;28;20095;-84
2023/04/20 10:43:20;;;;;;;2.67;2.03;;;;;;;;;;5054679;28;20025;-85
2023/04/20 10:45:47;;;;;;;3.20;2.35;;;;;;;;;;5057303;28;20060;-85
2023/04/20 10:48:12;;;;;;;2.95;2.20;;;;;;;;;;5058087;28;20025;-84
2023/04/20 10:50:38;;;;;;;3.17;2.30;;;;;;;;;;5057052;28;20898;-85
2023/04/20 10:53:04;;;;;;;3.30;2.20;;;;;;;;;;5057818;28;20033;-85
2023/04/20 10:55:30;;;;;;;2.92;2.00;;;;;;;;;;5058940;28;20032;-85
2023/04/20 10:57:55;;;;;;;3.05;2.17;;;;;;;;;;5040830;28;20379;-85
2023/04/20 11:00:22;;;;;;;2.85;2.10;;;;;;;;;;5057767;28;20044;-84
2023/04/20 11:02:52;;;;;;;2.55;1.90;;;;;;;;;;5054445;28;20409;-85
2023/04/20 11:05:19;;;;;;;2.63;2.10;;;;;;;;;;5056331;28;20112;-85
2023/04/20 11:07:54;;;;;;;2.70;2.25;;;;;;;;;;5042977;28;20029;-85
2023/04/20 11:10:20;;;;;;;2.55;2.25;;;;;;;;;;5058002;28;20041;-85
2023/04/20 11:12:46;;;;;;;2.90;2.17;;;;;;;;;;5056248;28;20025;-85
2023/04/20 11:15:12;;;;;;;2.50;1.98;;;;;;;;;;5058093;28;20040;-86
2023/04/20 11:17:38;;;;;;;2.38;2.05;;;;;;;;;;5058509;28;20040;-85
2023/04/20 11:20:09;;;;;;;3.40;2.13;;;;;;;;;;5038028;28;20396;-85
2023/04/20 11:22:36;;;;;;;2.55;2.10;;;;;;;;;;5040032;28;20044;-85
2023/04/20 11:25:04;;;;;;;3.65;2.10;;;;;;;;;;5058464;28;20170;-84
2023/04/20 11:27:30;;;;;;;2.22;1.80;;;;;;;;;;5058308;28;20036;-85
2023/04/20 11:29:57;;;;;;;2.47;2.17;;;;;;;;;;5058437;28;20040;-85
2023/04/20 11:32:22;;;;;;;3.05;2.47;;;;;;;;;;5056228;28;20033;-85
2023/04/20 11:34:57;;;;;;;3.40;2.70;;;;;;;;;;5051976;28;20128;-85
2023/04/20 11:37:22;;;;;;;3.22;2.50;;;;;;;;;;5058102;28;20059;-85
2023/04/20 11:40:06;;;;;;;3.22;2.50;;;;;;;;;;5059227;28;20029;-86
2023/04/20 11:42:32;;;;;;;4.38;2.50;;;;;;;;;;5053903;28;20025;-86
2023/04/20 11:44:58;;;;;;;3.80;3.10;;;;;;;;;;5054716;28;20502;-84
2023/04/20 11:47:24;;;;;;;3.35;2.78;;;;;;;;;;5055184;28;20040;-86
2023/04/20 11:49:49;;;;;;;4.35;3.22;;;;;;;;;;5056588;28;20044;-86
2023/04/20 11:52:15;;;;;;;4.13;3.60;;;;;;;;;;5054659;28;20043;-85
2023/04/20 11:54:40;;;;;;;4.20;3.30;;;;;;;;;;5055595;28;20579;-86
2023/04/20 11:57:12;;;;;;;4.53;3.45;;;;;;;;;;5056460;28;20422;-86
2023/04/20 11:59:38;;;;;;;4.75;3.67;;;;;;;;;;5049786;28;20101;-86
2023/04/20 12:02:04;;;;;;;3.80;3.30;;;;;;;;;;5052510;28;20068;-86
2023/04/20 12:04:30;;;;;;;4.35;3.50;;;;;;;;;;5051083;28;20473;-85
2023/04/20 12:06:58;;;;;;;4.22;3.17;;;;;;;;;;5060163;28;20037;-85
2023/04/20 12:09:27;;;;;;;4.15;3.17;;;;;;;;;;5055649;28;20028;-85
2023/04/20 12:11:52;;;;;;;4.03;3.30;;;;;;;;;;5053330;28;20032;-85
2023/04/20 12:14:18;;;;;;;3.90;3.30;;;;;;;;;;5057877;28;20048;-85
2023/04/20 12:16:44;;;;;;;4.32;3.40;;;;;;;;;;5060008;28;20047;-86
2023/04/20 12:19:10;;;;;;;3.72;3.10;;;;;;;;;;5061812;28;20030;-85
2023/04/20 12:21:35;;;;;;;4.03;3.20;;;;;;;;;;5059909;28;20100;-85
2023/04/20 12:24:01;;;;;;;5.13;3.10;;;;;;;;;;5065564;28;20070;-85
2023/04/20 12:26:26;;;;;;;3.50;2.90;;;;;;;;;;5061665;28;20133;-84
2023/04/20 12:28:52;;;;;;;3.22;2.80;;;;;;;;;;5063095;28;20112;-84
2023/04/20 12:31:18;;;;;;;3.95;2.90;;;;;;;;;;5064198;28;20529;-84
2023/04/20 12:33:43;;;;;;;3.40;2.50;;;;;;;;;;5056779;28;20104;-84
2023/04/20 12:36:09;;;;;;;3.13;2.70;;;;;;;;;;5062208;28;20040;-86
2023/04/20 12:38:35;;;;;;;3.80;2.80;;;;;;;;;;5061630;28;20106;-85
2023/04/20 12:41:01;;;;;;;4.15;3.00;;;;;;;;;;5064959;28;20037;-85
2023/04/20 12:43:27;;;;;;;5.45;3.10;;;;;;;;;;5064479;28;20044;-84
2023/04/20 12:45:53;;;;;;;4.35;3.42;;;;;;;;;;5061725;28;20097;-85
2023/04/20 12:48:18;;;;;;;4.95;3.65;;;;;;;;;;5057280;28;20086;-86
2023/04/20 12:50:44;;;;;;;4.30;3.33;;;;;;;;;;5057543;28;20033;-86
2023/04/20 12:53:09;;;;;;;4.80;3.60;;;;;;;;;;5061050;28;20039;-87
2023/04/20 12:55:35;;;;;;;5.10;3.75;;;;;;;;;;5062687;28;20044;-87
2023/04/20 12:58:00;;;;;;;5.13;4.13;;;;;;;;;;5062756;28;20033;-86
2023/04/20 13:00:26;;;;;;;8.15;5.70;;;;;;;;;;5061601;28;20041;-87
2023/04/20 13:02:51;;;;;;;9.38;6.70;;;;;;;;;;5064977;28;20111;-87
2023/04/20 13:05:18;;;;;;;7.78;5.45;;;;;;;;;;5062693;28;20514;-87
2023/04/20 13:07:44;;;;;;;8.32;5.90;;;;;;;;;;5050782;28;20097;-86
2023/04/20 13:10:10;;;;;;;6.25;5.10;;;;;;;;;;5060125;28;20064;-87
2023/04/20 13:12:36;;;;;;;7.78;5.85;;;;;;;;;;5062485;28;20029;-88
2023/04/20 13:15:02;;;;;;;9.40;7.15;;;;;;;;;;5061952;28;20510;-87
2023/04/20 13:17:27;;;;;;;8.52;6.70;;;;;;;;;;5062713;28;20052;-86
2023/04/20 13:19:53;;;;;;;9.75;6.93;;;;;;;;;;5061498;28;20043;-87
2023/04/20 13:22:18;;;;;;;9.57;6.63;;;;;;;;;;5061364;28;20231;-87
2023/04/20 13:24:44;;;;;;;10.30;6.63;;;;;;;;;;5061481;28;20045;-86
2023/04/20 13:27:09;;;;;;;9.85;7.40;;;;;;;;;;5062752;28;20367;-87
2023/04/20 13:29:35;;;;;;;8.40;5.93;;;;;;;;;;5055882;28;20029;-87
2023/04/20 13:32:00;;;;;;;9.18;6.07;;;;;;;;;;5058961;28;20702;-87
2023/04/20 13:34:26;;;;;;;7.57;5.40;;;;;;;;;;5059764;28;20033;-86
2023/04/20 13:36:52;;;;;;;9.35;6.20;;;;;;;;;;5062585;28;20041;-87
2023/04/20 13:39:19;;;;;;;10.65;7.13;;;;;;;;;;5061863;28;20033;-86
2023/04/20 13:41:45;;;;;;;12.38;7.30;;;;;;;;;;5062741;28;20037;-88
2023/04/20 13:44:14;;;;;;;9.73;6.75;;;;;;;;;;5062332;28;20106;-88
2023/04/20 13:46:44;;;;;;;9.50;7.25;;;;;;;;;;5062711;28;20028;-86
2023/04/20 13:49:10;;;;;;;10.60;7.10;;;;;;;;;;5057757;28;20032;-85
2023/04/20 13:51:38;;;;;;;13.77;7.47;;;;;;;;;;5057241;28;20036;-87
2023/04/20 13:54:03;;;;;;;12.07;8.10;;;;;;;;;;5062630;28;20032;-87
2023/04/20 13:56:29;;;;;;;12.73;7.70;;;;;;;;;;5062416;28;20053;-87
2023/04/20 13:58:54;;;;;;;10.60;7.55;;;;;;;;;;5062106;28;20061;-87
2023/04/20 14:01:21;;;;;;;9.75;6.93;;;;;;;;;;5061902;28;20086;-87
2023/04/20 14:03:47;;;;;;;11.23;7.60;;;;;;;;;;5059439;28;20036;-87
2023/04/20 14:06:12;;;;;;;8.48;6.60;;;;;;;;;;5062247;28;20041;-87
2023/04/20 14:08:37;;;;;;;9.57;7.00;;;;;;;;;;5062601;28;20028;-87
2023/04/20 14:11:03;;;;;;;10.60;7.57;;;;;;;;;;5060261;28;20143;-87
2023/04/20 14:13:29;;;;;;;9.38;6.93;;;;;;;;;;5071739;28;20035;-86
2023/04/20 14:15:55;;;;;;;9.77;7.10;;;;;;;;;;5058507;28;20163;-87
2023/04/20 14:18:21;;;;;;;8.85;6.03;;;;;;;;;;5057722;28;20036;-86
2023/04/20 14:20:51;;;;;;;10.73;7.03;;;;;;;;;;5058784;28;20021;-87
2023/04/20 14:23:19;;;;;;;8.50;6.38;;;;;;;;;;5071838;28;20033;-87
2023/04/20 14:25:44;;;;;;;9.70;6.55;;;;;;;;;;5058679;28;20037;-87
2023/04/20 14:28:10;;;;;;;8.35;6.15;;;;;;;;;;5060255;28;20043;-87
2023/04/20 14:30:35;;;;;;;8.65;6.57;;;;;;;;;;5060810;28;20040;-86
2023/04/20 14:33:02;;;;;;;10.90;6.38;;;;;;;;;;5061680;28;20120;-85
2023/04/20 14:35:28;;;;;;;8.77;6.22;;;;;;;;;;5057305;28;20044;-86
2023/04/20 14:37:53;;;;;;;8.93;6.47;;;;;;;;;;5058671;28;20075;-87
2023/04/20 14:40:19;;;;;;;9.90;5.75;;;;;;;;;;5056290;28;20040;-86
2023/04/20 14:42:45;;;;;;;8.48;5.72;;;;;;;;;;5039469;28;20040;-87